createdAt,value
2019-06-10T00:00:42.073Z,2.70
2019-06-10T00:03:11.654Z,2.27
2019-06-10T00:05:41.432Z,2.42
2019-06-10T00:08:11.779Z,2.25
2019-06-10T00:10:42.094Z,2.45
2019-06-10T00:13:12.006Z,2.30
2019-06-10T00:15:41.266Z,2.25
2019-06-10T00:18:34.307Z,2.35
2019-06-10T00:20:41.918Z,2.42
2019-06-10T00:23:12.302Z,2.40
2019-06-10T00:25:41.863Z,2.67
2019-06-10T00:28:12.161Z,2.02
2019-06-10T00:30:41.589Z,2.42
2019-06-10T00:33:12.509Z,2.17
2019-06-10T00:35:41.391Z,2.43
2019-06-10T00:38:13.904Z,2.37
2019-06-10T00:40:41.396Z,2.27
2019-06-10T00:43:13.167Z,2.15
2019-06-10T00:45:41.328Z,2.23
2019-06-10T00:48:21.327Z,2.08
2019-06-10T00:50:41.636Z,2.45
2019-06-10T00:53:14.096Z,2.35
2019-06-10T00:55:41.704Z,2.13
2019-06-10T00:58:13.847Z,2.20
2019-06-10T01:00:41.877Z,2.58
2019-06-10T01:03:13.544Z,2.12
2019-06-10T01:05:42.016Z,2.40
2019-06-10T01:08:13.954Z,2.22
2019-06-10T01:10:43.757Z,2.33
2019-06-10T01:13:15.265Z,1.82
2019-06-10T01:15:43.329Z,2.33
2019-06-10T01:18:30.591Z,1.90
2019-06-10T01:20:42.740Z,2.23
2019-06-10T01:23:13.813Z,2.60
2019-06-10T01:25:42.498Z,2.40
2019-06-10T01:28:14.599Z,2.65
2019-06-10T01:30:42.006Z,2.62
2019-06-10T01:33:12.726Z,2.10
2019-06-10T01:35:41.664Z,2.70
2019-06-10T01:38:12.844Z,2.80
2019-06-10T01:40:42.097Z,2.40
2019-06-10T01:43:13.996Z,2.70
2019-06-10T01:45:42.252Z,2.50
2019-06-10T01:48:12.040Z,2.50
2019-06-10T01:50:41.605Z,2.60
2019-06-10T01:53:14.081Z,2.65
2019-06-10T01:55:41.760Z,2.70
2019-06-10T01:58:14.639Z,2.70
2019-06-10T02:00:45.648Z,2.60
2019-06-10T02:03:16.578Z,2.58
2019-06-10T02:05:44.908Z,2.60
2019-06-10T02:08:14.984Z,2.52
2019-06-10T02:10:43.997Z,2.60
2019-06-10T02:13:33.475Z,3.22
2019-06-10T02:16:03.355Z,3.30
2019-06-10T02:18:32.317Z,3.08
2019-06-10T02:21:01.429Z,2.90
2019-06-10T02:23:31.497Z,3.02
2019-06-10T02:26:01.750Z,3.33
2019-06-10T02:28:31.703Z,3.60
2019-06-10T02:31:03.086Z,3.72
2019-06-10T02:33:36.033Z,3.60
2019-06-10T02:36:04.107Z,3.17
2019-06-10T02:38:38.823Z,3.72
2019-06-10T02:41:04.389Z,3.97
2019-06-10T02:43:37.656Z,4.80
2019-06-10T02:46:05.404Z,5.00
2019-06-10T02:48:35.427Z,4.60
2019-06-10T02:51:06.792Z,4.12
2019-06-10T02:53:37.080Z,3.45
2019-06-10T02:56:07.238Z,3.15
2019-06-10T02:58:39.205Z,2.83
2019-06-10T03:01:06.781Z,2.60
2019-06-10T03:03:43.534Z,2.77
2019-06-10T03:06:08.436Z,2.70
2019-06-10T03:08:36.927Z,2.33
2019-06-10T03:11:06.090Z,2.60
2019-06-10T03:13:34.778Z,2.25
2019-06-10T03:16:22.632Z,2.40
2019-06-10T03:18:52.571Z,2.55
2019-06-10T03:21:24.207Z,2.30
2019-06-10T03:23:53.136Z,2.40
2019-06-10T03:26:23.933Z,2.30
2019-06-10T03:28:52.145Z,2.30
2019-06-10T03:31:28.358Z,2.72
2019-06-10T03:33:54.383Z,2.20
2019-06-10T03:36:23.132Z,2.02
2019-06-10T03:38:53.750Z,2.10
2019-06-10T03:41:24.680Z,1.97
2019-06-10T03:43:53.195Z,1.90
2019-06-10T03:46:24.278Z,2.00
2019-06-10T03:48:52.717Z,1.93
2019-06-10T03:51:23.999Z,2.20
2019-06-10T03:53:53.155Z,2.77
2019-06-10T03:56:23.841Z,2.25
2019-06-10T03:58:52.400Z,2.27
2019-06-10T04:01:24.387Z,2.27
2019-06-10T04:03:52.965Z,2.00
2019-06-10T04:06:24.202Z,2.13
2019-06-10T04:08:52.369Z,1.80
2019-06-10T04:11:24.097Z,1.90
2019-06-10T04:13:53.527Z,1.90
2019-06-10T04:16:22.647Z,2.15
2019-06-10T04:18:53.410Z,2.10
2019-06-10T04:21:23.888Z,2.20
2019-06-10T04:23:52.965Z,2.55
2019-06-10T04:26:24.102Z,1.80
2019-06-10T04:28:53.010Z,2.00
2019-06-10T04:31:23.801Z,2.05
2019-06-10T04:33:52.470Z,1.92
2019-06-10T04:36:24.504Z,1.77
2019-06-10T04:38:52.483Z,1.45
2019-06-10T04:41:24.325Z,1.90
2019-06-10T04:43:53.184Z,1.70
2019-06-10T04:46:24.591Z,1.43
2019-06-10T04:48:53.278Z,1.40
2019-06-10T04:51:23.925Z,1.52
2019-06-10T04:53:52.712Z,1.33
2019-06-10T04:56:24.133Z,1.90
2019-06-10T04:58:52.555Z,1.40
2019-06-10T05:01:24.000Z,1.60
2019-06-10T05:03:52.655Z,1.50
2019-06-10T05:06:32.614Z,1.92
2019-06-10T05:08:58.936Z,1.80
2019-06-10T05:11:28.943Z,1.57
2019-06-10T05:13:58.053Z,1.37
2019-06-10T05:16:30.063Z,1.30
2019-06-10T05:18:57.146Z,1.57
2019-06-10T05:21:28.010Z,1.10
2019-06-10T05:23:56.253Z,1.80
2019-06-10T05:26:26.147Z,1.70
2019-06-10T05:28:55.378Z,1.87
2019-06-10T05:31:28.235Z,1.55
2019-06-10T05:33:54.500Z,1.20
2019-06-10T05:36:25.703Z,1.55
2019-06-10T05:38:53.605Z,1.70
2019-06-10T05:41:24.873Z,1.27
2019-06-10T05:43:52.708Z,1.50
2019-06-10T05:46:23.630Z,1.42
2019-06-10T05:48:52.636Z,1.37
2019-06-10T05:51:23.150Z,1.50
2019-06-10T05:53:52.844Z,1.40
2019-06-10T05:56:23.344Z,1.30
2019-06-10T05:58:52.604Z,1.45
2019-06-10T06:01:23.824Z,1.20
2019-06-10T06:03:53.007Z,2.10
2019-06-10T06:06:22.989Z,1.50
2019-06-10T06:08:53.352Z,1.47
2019-06-10T06:11:23.166Z,1.50
2019-06-10T06:13:52.404Z,1.75
2019-06-10T06:16:23.013Z,1.20
2019-06-10T06:18:52.743Z,1.50
2019-06-10T06:21:29.609Z,1.60
2019-06-10T06:23:52.873Z,1.72
2019-06-10T06:26:23.543Z,1.70
2019-06-10T06:28:53.522Z,1.65
2019-06-10T06:31:23.229Z,1.50
2019-06-10T06:33:52.698Z,1.80
2019-06-10T06:36:22.661Z,1.70
2019-06-10T06:38:53.194Z,1.62
2019-06-10T06:41:22.675Z,1.75
2019-06-10T06:43:53.103Z,1.75
2019-06-10T06:46:23.453Z,1.67
2019-06-10T06:48:53.271Z,1.80
2019-06-10T06:51:35.701Z,1.80
2019-06-10T06:53:56.139Z,2.27
2019-06-10T06:56:23.290Z,1.80
2019-06-10T06:58:52.533Z,1.80
2019-06-10T07:01:25.168Z,1.72
2019-06-10T07:03:53.666Z,1.50
2019-06-10T07:06:23.856Z,1.75
2019-06-10T07:09:04.117Z,1.85
2019-06-10T07:11:24.435Z,1.95
2019-06-10T07:13:55.185Z,1.70
2019-06-10T07:16:23.914Z,1.57
2019-06-10T07:18:54.051Z,1.55
2019-06-10T07:21:22.985Z,2.30
2019-06-10T07:23:52.841Z,1.62
2019-06-10T07:26:22.311Z,1.90
2019-06-10T07:28:53.620Z,1.80
2019-06-10T07:31:27.499Z,2.40
2019-06-10T07:33:52.549Z,2.27
2019-06-10T07:36:23.502Z,1.77
2019-06-10T07:38:54.059Z,1.75
2019-06-10T07:41:23.204Z,1.60
2019-06-10T07:43:52.766Z,1.57
2019-06-10T07:46:23.105Z,1.72
2019-06-10T07:48:56.354Z,1.90
2019-06-10T07:51:22.790Z,2.40
2019-06-10T07:53:52.545Z,1.90
2019-06-10T07:56:23.366Z,1.62
2019-06-10T07:58:52.944Z,1.72
2019-06-10T08:01:22.956Z,1.75
2019-06-10T08:03:52.672Z,1.97
2019-06-10T08:06:22.989Z,1.90
2019-06-10T08:08:53.243Z,1.67
2019-06-10T08:11:22.844Z,1.52
2019-06-10T08:13:53.819Z,2.20
2019-06-10T08:16:23.614Z,1.98
2019-06-10T08:19:20.540Z,1.57
2019-06-10T08:21:23.167Z,1.50
2019-06-10T08:23:54.378Z,1.50
2019-06-10T08:26:25.547Z,1.40
2019-06-10T08:28:54.300Z,1.50
2019-06-10T08:31:23.025Z,1.55
2019-06-10T08:33:53.365Z,1.40
2019-06-10T08:36:22.724Z,1.60
2019-06-10T08:38:52.653Z,1.75
2019-06-10T08:41:23.048Z,1.50
2019-06-10T08:43:52.884Z,1.15
2019-06-10T08:46:22.582Z,1.32
2019-06-10T08:48:52.584Z,1.70
2019-06-10T08:51:23.702Z,1.40
2019-06-10T08:53:53.233Z,1.50
2019-06-10T08:56:22.495Z,1.32
2019-06-10T08:58:53.831Z,1.30
2019-06-10T09:01:22.335Z,1.00
2019-06-10T09:03:53.739Z,1.42
2019-06-10T09:06:23.049Z,1.35
2019-06-10T09:08:54.454Z,1.35
2019-06-10T09:11:23.750Z,1.45
2019-06-10T09:13:53.176Z,1.30
2019-06-10T09:16:22.924Z,1.20
2019-06-10T09:18:54.911Z,1.37
2019-06-10T09:21:22.435Z,0.93
2019-06-10T09:23:58.655Z,1.30
2019-06-10T09:26:22.903Z,1.00
2019-06-10T09:28:55.875Z,1.30
2019-06-10T09:31:23.305Z,1.10
2019-06-10T09:33:56.622Z,1.27
2019-06-10T09:36:23.692Z,1.45
2019-06-10T09:38:54.977Z,1.62
2019-06-10T09:41:36.107Z,1.57
2019-06-10T09:43:57.069Z,1.22
2019-06-10T09:46:25.627Z,1.60
2019-06-10T09:48:56.053Z,1.50
2019-06-10T09:51:26.097Z,1.40
2019-06-10T09:54:02.384Z,1.50
2019-06-10T09:56:25.179Z,1.52
2019-06-10T09:58:55.347Z,1.35
2019-06-10T10:01:24.734Z,1.12
2019-06-10T10:03:59.763Z,1.70
2019-06-10T10:06:24.457Z,1.35
2019-06-10T10:08:58.065Z,1.27
2019-06-10T10:11:27.594Z,1.70
2019-06-10T10:13:54.678Z,1.25
2019-06-10T10:16:23.413Z,1.60
2019-06-10T10:18:57.527Z,1.45
2019-06-10T10:21:22.558Z,1.57
2019-06-10T10:24:06.575Z,1.52
2019-06-10T10:26:21.636Z,1.60
2019-06-10T10:28:53.218Z,1.32
2019-06-10T10:31:23.018Z,2.40
2019-06-10T10:33:52.567Z,1.62
2019-06-10T10:36:22.650Z,1.70
2019-06-10T10:38:52.283Z,1.53
2019-06-10T10:41:23.994Z,1.67
2019-06-10T10:43:56.538Z,2.05
2019-06-10T10:46:23.206Z,1.30
2019-06-10T10:48:56.018Z,1.10
2019-06-10T10:51:23.128Z,1.52
2019-06-10T10:54:18.732Z,1.40
2019-06-10T10:56:22.497Z,1.30
2019-06-10T10:58:55.635Z,1.50
2019-06-10T11:01:23.656Z,1.70
2019-06-10T11:03:58.174Z,1.85
2019-06-10T11:06:23.210Z,1.62
2019-06-10T11:08:57.094Z,1.62
2019-06-10T11:11:24.172Z,1.67
2019-06-10T11:13:56.693Z,1.75
2019-06-10T11:18:54.092Z,1.40
2019-06-10T11:21:22.871Z,1.95
2019-06-10T11:23:53.799Z,2.00
2019-06-10T11:26:22.830Z,2.02
2019-06-10T11:28:55.357Z,1.72
2019-06-10T11:31:22.833Z,1.60
2019-06-10T11:33:56.127Z,1.85
2019-06-10T11:36:22.924Z,1.80
2019-06-10T11:38:55.129Z,1.62
2019-06-10T11:41:23.725Z,1.82
2019-06-10T11:43:56.060Z,1.45
2019-06-10T11:46:23.094Z,1.72
2019-06-10T11:48:55.273Z,1.72
2019-06-10T11:51:23.484Z,2.35
2019-06-10T11:53:54.324Z,2.33
2019-06-10T11:56:22.646Z,1.75
2019-06-10T11:58:55.140Z,1.82
2019-06-10T12:01:22.923Z,1.65
2019-06-10T12:03:54.066Z,1.80
2019-06-10T12:06:22.895Z,2.65
2019-06-10T12:08:57.389Z,1.85
2019-06-10T12:11:23.067Z,2.30
2019-06-10T12:13:57.746Z,2.08
2019-06-10T12:21:23.721Z,4.20
2019-06-10T12:23:57.027Z,10.78
2019-06-10T12:26:23.617Z,12.40
2019-06-10T12:28:54.656Z,6.80
2019-06-10T12:31:23.337Z,21.95
2019-06-10T12:33:55.341Z,10.48
2019-06-10T12:36:23.744Z,4.95
2019-06-10T12:38:56.401Z,6.10
2019-06-10T12:41:23.477Z,4.12
2019-06-10T12:43:53.084Z,4.05
2019-06-10T12:46:23.180Z,14.68
2019-06-10T12:48:53.973Z,14.15
2019-06-10T12:51:22.975Z,9.58
2019-06-10T12:53:53.161Z,8.50
2019-06-10T12:56:22.813Z,6.72
2019-06-10T12:58:54.092Z,7.72
2019-06-10T13:01:22.072Z,7.12
2019-06-10T13:03:53.598Z,10.13
2019-06-10T13:06:23.500Z,11.15
2019-06-10T13:08:56.407Z,12.45
2019-06-10T13:11:26.081Z,8.45
2019-06-10T13:13:56.207Z,9.53
2019-06-10T13:16:25.163Z,5.85
2019-06-10T13:18:54.017Z,6.60
2019-06-10T13:21:22.984Z,4.72
2019-06-10T13:23:54.131Z,2.83
2019-06-10T13:26:23.256Z,3.40
2019-06-10T13:28:52.582Z,4.37
2019-06-10T13:31:23.549Z,3.92
2019-06-10T13:33:52.879Z,4.90
2019-06-10T13:36:25.862Z,3.75
2019-06-10T13:38:53.254Z,4.37
2019-06-10T13:41:22.774Z,4.45
2019-06-10T13:43:52.847Z,6.50
2019-06-10T13:46:24.563Z,5.50
2019-06-10T13:48:52.647Z,4.90
2019-06-10T13:51:21.369Z,1.85
2019-06-10T13:53:50.101Z,2.10
2019-06-10T13:56:39.898Z,1.80
2019-06-10T13:58:49.236Z,2.10
2019-06-10T14:01:21.940Z,1.80
2019-06-10T14:03:48.337Z,1.87
2019-06-10T14:06:37.131Z,1.98
2019-06-10T14:08:47.496Z,2.55
2019-06-10T14:11:16.304Z,1.92
2019-06-10T14:13:45.049Z,2.08
2019-06-10T14:16:15.037Z,2.05
2019-06-10T14:18:43.996Z,2.30
2019-06-10T14:21:17.986Z,2.15
2019-06-10T14:23:43.093Z,2.02
2019-06-10T14:26:16.681Z,2.62
2019-06-10T14:28:44.443Z,1.98
2019-06-10T14:31:35.553Z,1.80
2019-06-10T14:33:43.058Z,1.60
2019-06-10T14:36:15.106Z,1.70
2019-06-10T14:38:42.284Z,1.90
2019-06-10T14:41:12.198Z,1.52
2019-06-10T14:43:42.391Z,1.82
2019-06-10T14:46:14.354Z,1.77
2019-06-10T14:48:42.642Z,1.70
2019-06-10T14:51:14.009Z,2.50
2019-06-10T14:53:42.708Z,1.52
2019-06-10T14:56:14.899Z,2.02
2019-06-10T14:58:42.530Z,2.05
2019-06-10T15:01:13.385Z,1.80
2019-06-10T15:03:42.976Z,2.00
2019-06-10T15:06:11.877Z,2.00
2019-06-10T15:08:42.855Z,1.85
2019-06-10T15:11:11.647Z,1.98
2019-06-10T15:13:43.315Z,2.10
2019-06-10T15:16:12.185Z,2.10
2019-06-10T15:18:43.136Z,2.27
2019-06-10T15:21:11.454Z,2.00
2019-06-10T15:23:42.739Z,1.95
2019-06-10T15:26:13.133Z,2.00
2019-06-10T15:28:42.748Z,2.05
2019-06-10T15:31:13.548Z,2.00
2019-06-10T15:33:43.079Z,2.10
2019-06-10T15:36:13.106Z,1.70
2019-06-10T15:38:44.065Z,1.97
2019-06-10T15:41:16.050Z,2.50
2019-06-10T15:43:42.761Z,4.55
2019-06-10T15:46:12.964Z,2.33
2019-06-10T15:48:43.030Z,1.80
2019-06-10T15:51:13.929Z,2.10
2019-06-10T15:53:43.096Z,2.08
2019-06-10T15:56:23.757Z,2.25
2019-06-10T15:58:42.946Z,2.50
2019-06-10T16:01:14.589Z,2.12
2019-06-10T16:03:42.473Z,2.50
2019-06-10T16:06:12.117Z,2.65
2019-06-10T16:08:43.032Z,2.72
2019-06-10T16:11:13.780Z,2.42
2019-06-10T16:13:43.006Z,2.42
2019-06-10T16:16:12.821Z,2.30
2019-06-10T16:18:42.398Z,2.27
2019-06-10T16:21:13.252Z,2.12
2019-06-10T16:23:43.056Z,2.12
2019-06-10T16:26:13.099Z,1.70
2019-06-10T16:28:42.694Z,2.20
2019-06-10T16:31:13.121Z,1.90
2019-06-10T16:33:49.294Z,2.37
2019-06-10T16:36:12.448Z,2.10
2019-06-10T16:38:42.361Z,2.67
2019-06-10T16:41:12.341Z,2.15
2019-06-10T16:43:42.824Z,2.20
2019-06-10T16:46:11.799Z,2.62
2019-06-10T16:48:43.430Z,2.40
2019-06-10T16:51:13.262Z,1.95
2019-06-10T16:53:42.659Z,2.30
2019-06-10T16:56:12.190Z,2.45
2019-06-10T16:58:43.126Z,2.15
2019-06-10T17:01:12.460Z,2.20
2019-06-10T17:03:42.495Z,2.33
2019-06-10T17:06:13.095Z,2.00
2019-06-10T17:08:42.619Z,2.35
2019-06-10T17:11:12.405Z,2.20
2019-06-10T17:13:42.279Z,1.90
2019-06-10T17:16:12.681Z,2.17
2019-06-10T17:18:41.609Z,2.08
2019-06-10T17:21:13.024Z,2.55
2019-06-10T17:23:43.137Z,2.10
2019-06-10T17:26:11.120Z,1.92
2019-06-10T17:28:39.828Z,2.20
2019-06-10T17:31:08.591Z,2.15
2019-06-10T17:33:37.409Z,1.82
2019-06-10T17:36:06.126Z,1.80
2019-06-10T17:38:34.846Z,2.00
2019-06-10T17:41:03.616Z,2.00
2019-06-10T17:43:34.195Z,1.75
2019-06-10T17:46:03.318Z,2.30
2019-06-10T17:48:33.617Z,2.00
2019-06-10T17:51:04.020Z,2.20
2019-06-10T17:53:34.860Z,2.20
2019-06-10T17:56:03.535Z,2.15
2019-06-10T17:58:47.496Z,2.30
2019-06-10T18:01:02.740Z,2.05
2019-06-10T18:03:31.470Z,2.55
2019-06-10T18:06:02.615Z,2.40
2019-06-10T18:08:32.373Z,2.52
2019-06-10T18:11:03.079Z,3.00
2019-06-10T18:13:33.091Z,2.70
2019-06-10T18:16:02.779Z,2.60
2019-06-10T18:18:35.650Z,2.87
2019-06-10T18:21:03.356Z,3.60
2019-06-10T18:23:33.126Z,3.40
2019-06-10T18:26:03.195Z,4.00
2019-06-10T18:28:35.978Z,3.70
2019-06-10T18:31:02.671Z,4.20
2019-06-10T18:33:34.163Z,3.50
2019-06-10T18:36:01.766Z,3.40
2019-06-10T18:38:33.633Z,3.08
2019-06-10T18:41:03.263Z,3.17
2019-06-10T18:43:32.590Z,3.80
2019-06-10T18:46:03.498Z,4.10
2019-06-10T18:48:35.982Z,4.12
2019-06-10T18:51:02.429Z,4.80
2019-06-10T18:53:34.470Z,5.53
2019-06-10T18:56:01.516Z,4.75
2019-06-10T18:58:32.720Z,4.55
2019-06-10T19:01:05.192Z,4.60
2019-06-10T19:03:33.408Z,4.70
2019-06-10T19:06:01.496Z,4.30
2019-06-10T19:08:33.693Z,4.42
2019-06-10T19:11:02.431Z,4.37
2019-06-10T19:13:34.098Z,4.20
2019-06-10T19:16:02.432Z,4.37
2019-06-10T19:18:31.917Z,5.10
2019-06-10T19:21:03.587Z,4.85
2019-06-10T19:23:33.440Z,5.35
2019-06-10T19:26:02.954Z,4.65
2019-06-10T19:28:33.853Z,4.25
2019-06-10T19:31:02.509Z,4.35
2019-06-10T19:33:34.113Z,4.10
2019-06-10T19:36:02.268Z,4.25
2019-06-10T19:38:32.407Z,3.98
2019-06-10T19:41:02.740Z,3.50
2019-06-10T19:43:34.599Z,4.00
2019-06-10T19:46:04.396Z,4.05
2019-06-10T19:48:35.383Z,3.70
2019-06-10T19:51:03.203Z,4.37
2019-06-10T19:53:33.015Z,4.08
2019-06-10T19:56:02.672Z,3.90
2019-06-10T19:58:32.301Z,3.70
2019-06-10T20:01:01.367Z,4.15
2019-06-10T20:03:32.519Z,4.42
2019-06-10T20:06:02.895Z,4.35
2019-06-10T20:08:32.928Z,4.12
2019-06-10T20:11:03.254Z,3.85
2019-06-10T20:13:32.451Z,4.15
2019-06-10T20:16:02.949Z,4.87
2019-06-10T20:18:33.184Z,4.03
2019-06-10T20:21:02.751Z,4.22
2019-06-10T20:23:33.353Z,3.92
2019-06-10T20:26:02.216Z,4.30
2019-06-10T20:28:32.113Z,4.53
2019-06-10T20:31:01.107Z,4.40
2019-06-10T20:33:36.187Z,4.92
2019-06-10T20:36:03.331Z,5.05
2019-06-10T20:38:32.623Z,4.65
2019-06-10T20:41:02.578Z,4.92
2019-06-10T20:43:32.836Z,5.00
2019-06-10T20:46:02.800Z,4.97
2019-06-10T20:48:33.333Z,4.40
2019-06-10T20:51:03.250Z,4.55
2019-06-10T20:53:33.790Z,4.08
2019-06-10T20:56:03.770Z,3.92
2019-06-10T20:58:33.268Z,3.83
2019-06-10T21:01:04.616Z,4.08
2019-06-10T21:03:32.537Z,3.70
2019-06-10T21:06:03.219Z,4.20
2019-06-10T21:08:33.843Z,3.60
2019-06-10T21:11:03.147Z,3.60
2019-06-10T21:13:33.267Z,3.15
2019-06-10T21:16:03.737Z,3.35
2019-06-10T21:18:33.054Z,3.50
2019-06-10T21:21:02.307Z,3.15
2019-06-10T21:23:31.171Z,2.98
2019-06-10T21:26:02.567Z,3.80
2019-06-10T21:28:32.435Z,3.40
2019-06-10T21:31:02.830Z,3.15
2019-06-10T21:33:32.936Z,3.10
2019-06-10T21:36:03.959Z,2.90
2019-06-10T21:38:32.276Z,3.02
2019-06-10T21:41:03.254Z,3.40
2019-06-10T21:43:33.083Z,3.20
2019-06-10T21:46:03.680Z,2.85
2019-06-10T21:48:32.448Z,2.98
2019-06-10T21:51:01.226Z,3.50
2019-06-10T21:53:30.000Z,3.70
2019-06-10T21:55:58.724Z,3.05
2019-06-10T21:58:27.445Z,3.20
2019-06-10T22:01:09.858Z,2.87
2019-06-10T22:03:27.237Z,3.30
2019-06-10T22:05:55.961Z,2.80
2019-06-10T22:08:24.716Z,3.30
2019-06-10T22:10:56.143Z,3.50
2019-06-10T22:13:23.815Z,3.12
2019-06-10T22:15:54.873Z,3.02
2019-06-10T22:18:23.053Z,3.60
2019-06-10T22:20:56.075Z,3.67
2019-06-10T22:23:23.236Z,3.75
2019-06-10T22:25:55.681Z,3.77
2019-06-10T22:28:22.620Z,3.90
2019-06-10T22:30:54.266Z,3.77
2019-06-10T22:33:22.648Z,3.75
2019-06-10T22:35:54.571Z,3.58
2019-06-10T22:38:22.287Z,3.40
2019-06-10T22:40:53.321Z,3.25
2019-06-10T22:43:23.582Z,3.00
2019-06-10T22:45:53.913Z,3.62
2019-06-10T22:48:22.517Z,3.42
2019-06-10T22:50:51.370Z,3.17
2019-06-10T22:53:22.976Z,3.22
2019-06-10T22:55:53.048Z,3.12
2019-06-10T22:58:23.731Z,3.25
2019-06-10T23:00:53.241Z,3.60
2019-06-10T23:03:21.989Z,3.50
2019-06-10T23:05:50.742Z,3.40
2019-06-10T23:08:19.464Z,3.45
2019-06-10T23:10:48.538Z,3.30
2019-06-10T23:13:17.347Z,2.92
2019-06-10T23:15:46.083Z,3.45
2019-06-10T23:18:14.824Z,3.60
2019-06-10T23:20:43.538Z,3.17
2019-06-10T23:23:12.900Z,2.90
2019-06-10T23:25:43.015Z,3.40
2019-06-10T23:28:13.018Z,3.30
2019-06-10T23:30:42.630Z,3.70
2019-06-10T23:33:12.660Z,3.60
2019-06-10T23:35:43.091Z,3.77
2019-06-10T23:38:13.308Z,3.60
2019-06-10T23:40:43.016Z,3.50
2019-06-10T23:43:13.318Z,3.72
2019-06-10T23:45:42.457Z,3.50
2019-06-10T23:48:13.425Z,3.55
2019-06-10T23:50:43.684Z,3.80
2019-06-10T23:53:13.159Z,3.27
2019-06-10T23:55:42.841Z,3.90
2019-06-10T23:58:12.881Z,3.50
